Nearby METAR Reports

 

KMLP - Mullan Pass, Idaho, USA
Distance from station: NE 41mi, 66km
Updated: Mon, 14-Jun-2021 3:53pm PDT
Clear
Clear
 Wind from varies
Wind: varies 6 mph , 9 km/h
Temperature: 75°F , 24°C
Dew Point: 45°F , 7°C
Humidity: 34%
Barometer: 30.11 inHg , 1019.6 hPa
Clouds: Clear
Visibility: 10 miles , 16 km
2021/06/14 22:53 KMLP 142253Z AUTO VRB05KT 10SM CLR 24/07 A3011 RMK AO2 SLP086 T02440072 TSNO
KPUW - Pullman/Moscow, Washington, USA
Distance from station: SW 42mi, 68km
Updated: Mon, 14-Jun-2021 3:53pm PDT
Clear
Clear
 Wind from N
Wind: N 7 mph , 11 km/h
Temperature: 81°F , 27°C
Dew Point: 52°F , 11°C
Humidity: 37%
Barometer: 29.93 inHg , 1013.5 hPa
Clouds: Clear
Visibility: 10 miles , 16 km
2021/06/14 22:53 KPUW 142253Z AUTO 35006KT 10SM CLR 27/11 A2993 RMK AO2 SLP120 T02720111 TSNO
 
KCOE - Coeur D'alene, Idaho, USA
Distance from station: NNW 49mi, 79km
Updated: Mon, 14-Jun-2021 3:56pm PDT
Clear
Clear
 Wind from WNW
Wind: WNW 7 mph , 11 km/h
Temperature: 82°F , 28°C
Heat Index: 81°F , 27°C
Dew Point: 55°F , 13°C
Humidity: 40%
Barometer: 29.92 inHg , 1013.2 hPa
Clouds: Clear
Visibility: 10 miles , 16 km
2021/06/14 22:56 KCOE 142256Z AUTO 29006KT 10SM CLR 28/13 A2992 RMK AO2 SLP130 T02830133 PNO $
KSFF - Spokane/Felts, Washington, USA
Distance from station: NW 59mi, 94km
Updated: Mon, 14-Jun-2021 3:53pm PDT
Clear
Clear
 Wind from varies
Wind: varies 3 mph , 6 km/h
Temperature: 86°F , 30°C
Dew Point: 48°F , 9°C
Humidity: 27%
Barometer: 29.90 inHg , 1012.5 hPa
Clouds: Clear
Visibility: 10 miles , 16 km
2021/06/14 22:53 KSFF 142253Z VRB03KT 10SM CLR 30/09 A2990 RMK AO2 SLP107 T03000094
 
KLWS - Lewiston, Idaho, USA
Distance from station: SSW 59mi, 96km
Updated: Mon, 14-Jun-2021 3:56pm PDT
Clear
Clear
 
Temperature: 90°F , 32°C
Dew Point: 48°F , 9°C
Humidity: 24%
Barometer: 29.81 inHg , 1009.5 hPa
Clouds: Clear
Visibility: 10 miles , 16 km
2021/06/14 22:56 KLWS 142256Z 10SM CLR 32/09 A2981 RMK AO2 SLP082 T03220094
KGEG - Spokane/Metro, Washington, USA
Distance from station: WNW 64mi, 103km
Updated: Mon, 14-Jun-2021 3:53pm PDT
Few Clouds
Few Clouds
 Wind from SSW
Wind: SSW 10 mph , 17 km/h
Temperature: 84°F , 29°C
Dew Point: 46°F , 8°C
Humidity: 27%
Barometer: 29.92 inHg , 1013.2 hPa
Clouds: Few Clouds
Visibility: 10 miles , 16 km
Cloud details: Few Clouds 8000 ft
Few Clouds 25000 ft
2021/06/14 22:53 KGEG 142253Z 21009KT 10SM FEW080 FEW250 29/08 A2992 RMK AO2 SLP115 T02890078
 
KSKA - Fairchild Afb, Washington, USA
Distance from station: WNW 68mi, 110km
Updated: Mon, 14-Jun-2021 3:58pm PDT
Clear
Clear
 Wind from S
Wind: S 3 mph , 6 km/h
Temperature: 86°F , 30°C
Dew Point: 46°F , 8°C
Humidity: 25%
Barometer: 29.92 inHg , 1013.2 hPa
Clouds: Clear
Visibility: 10 miles , 16 km
2021/06/14 22:58 KSKA 142258Z AUTO 17003KT 10SM CLR 30/08 A2992 RMK AO2 SLP119 T02990077 $